BVX weather

Batesville Regional Airport
Batesville, Arkansas, United States

Public forecast

Using degrees Fahrenheit for public forecast. Weather courtesy of forecast.io.

Current aviation weather report (METAR) for Batesville Regional Airport

Retrieved 2020/07/03 16:56 UTC (48 minutes ago):

KBVX 031656Z AUTO 26004KT 10SM CLR 29/23 A2998 RMK AO2 SLP150 T02940228

Closest aviation forecast (TAF) to Batesville Regional Airport

Closest forecast is Jonesboro Municipal Airport, 49.2 nm (91.0 km) E. Retrieved 2020/07/03 12:39 UTC (5 hours ago):

TAF KJBR 031137Z 0312/0412 04005KT P6SM SCT250 FM031500 12005KT P6SM SCT050 SCT250 FM032100 10004KT P6SM VCTS SCT045CB SCT250 FM040200 07005KT P6SM SCT250 AMD NOT SKED